createdAt,value
2022-08-03T00:01:50.365Z,2.00
2022-08-03T00:04:17.222Z,2.10
2022-08-03T00:06:44.274Z,1.60
2022-08-03T00:09:11.692Z,1.93
2022-08-03T00:11:39.090Z,1.87
2022-08-03T00:14:06.664Z,1.70
2022-08-03T00:16:33.724Z,2.07
2022-08-03T00:19:01.374Z,1.50
2022-08-03T00:21:29.058Z,1.67
2022-08-03T00:23:55.867Z,1.40
2022-08-03T00:26:22.783Z,1.87
2022-08-03T00:28:50.697Z,2.03
2022-08-03T00:31:20.396Z,2.17
2022-08-03T00:34:04.555Z,2.67
2022-08-03T00:36:33.098Z,1.83
2022-08-03T00:38:59.952Z,2.30
2022-08-03T00:41:26.733Z,2.63
2022-08-03T00:43:53.475Z,2.10
2022-08-03T00:46:22.996Z,1.90
2022-08-03T00:48:51.009Z,2.73
2022-08-03T00:51:19.919Z,2.00
2022-08-03T00:53:47.076Z,2.20
2022-08-03T00:56:18.293Z,2.20
2022-08-03T00:58:46.205Z,2.23
2022-08-03T01:01:13.618Z,2.63
2022-08-03T01:03:41.331Z,2.80
2022-08-03T01:06:22.150Z,2.77
2022-08-03T01:08:56.679Z,3.30
2022-08-03T01:11:26.857Z,2.97
2022-08-03T01:14:03.929Z,2.53
2022-08-03T01:16:51.366Z,3.50
2022-08-03T01:19:29.946Z,3.47
2022-08-03T01:22:05.629Z,3.47
2022-08-03T01:24:40.965Z,3.90
2022-08-03T01:27:11.934Z,3.37
2022-08-03T01:29:59.094Z,3.63
2022-08-03T01:33:00.085Z,3.67
2022-08-03T01:35:46.995Z,3.77
2022-08-03T01:38:19.639Z,3.90
2022-08-03T01:40:47.732Z,3.63
2022-08-03T01:43:55.266Z,3.83
2022-08-03T01:46:08.776Z,4.07
2022-08-03T01:48:39.759Z,4.43
2022-08-03T01:51:08.893Z,4.57
2022-08-03T01:53:38.135Z,4.40
2022-08-03T01:56:06.622Z,3.90
2022-08-03T01:58:36.428Z,4.90
2022-08-03T02:01:05.127Z,4.07
2022-08-03T02:03:36.807Z,3.60
2022-08-03T02:07:01.813Z,4.40
2022-08-03T02:08:53.665Z,4.17
2022-08-03T02:11:20.668Z,4.03
2022-08-03T02:13:49.577Z,4.37
2022-08-03T02:16:19.190Z,4.07
2022-08-03T02:18:47.928Z,4.10
2022-08-03T02:21:55.682Z,4.30
2022-08-03T02:24:04.520Z,3.30
2022-08-03T02:26:32.690Z,3.90
2022-08-03T02:29:05.846Z,4.00
2022-08-03T02:31:37.069Z,3.70
2022-08-03T02:34:08.604Z,4.30
2022-08-03T02:36:39.343Z,4.50
2022-08-03T02:39:07.655Z,5.00
2022-08-03T02:41:41.206Z,4.00
2022-08-03T02:44:09.774Z,4.73
2022-08-03T02:46:39.867Z,4.80
2022-08-03T02:49:41.097Z,4.70
2022-08-03T02:51:56.622Z,4.90
2022-08-03T02:54:25.132Z,4.30
2022-08-03T02:56:54.794Z,4.60
2022-08-03T02:59:22.592Z,4.80
2022-08-03T03:01:50.870Z,5.30
2022-08-03T03:04:18.418Z,4.23
2022-08-03T03:06:48.941Z,4.97
2022-08-03T03:09:17.108Z,4.53
2022-08-03T03:11:44.976Z,4.83
2022-08-03T03:14:13.406Z,5.03
2022-08-03T03:16:41.951Z,4.83
2022-08-03T03:19:11.384Z,4.90
2022-08-03T03:21:38.400Z,4.47
2022-08-03T03:24:06.576Z,4.93
2022-08-03T03:26:35.349Z,5.23
2022-08-03T03:29:04.323Z,4.83
2022-08-03T03:31:31.708Z,4.83
2022-08-03T03:33:59.094Z,5.67
2022-08-03T03:36:25.952Z,5.07
2022-08-03T03:38:53.758Z,4.80
2022-08-03T03:41:21.007Z,4.47
2022-08-03T03:43:50.210Z,4.50
2022-08-03T03:46:18.400Z,4.90
2022-08-03T03:48:45.493Z,3.73
2022-08-03T03:51:12.908Z,4.10
2022-08-03T03:53:39.837Z,4.40
2022-08-03T03:56:06.670Z,4.27
2022-08-03T03:58:33.692Z,4.60
2022-08-03T04:01:01.139Z,4.50
2022-08-03T04:03:28.176Z,3.50
2022-08-03T04:06:13.574Z,3.80
2022-08-03T04:08:59.437Z,4.00
2022-08-03T04:11:34.398Z,3.87
2022-08-03T04:14:06.831Z,4.07
2022-08-03T04:16:41.890Z,4.00
2022-08-03T04:19:17.467Z,4.03
2022-08-03T04:21:52.319Z,4.00
2022-08-03T04:24:22.088Z,4.40
2022-08-03T04:26:55.306Z,4.03
2022-08-03T04:29:25.396Z,5.00
2022-08-03T04:31:54.859Z,3.57
2022-08-03T04:34:21.996Z,4.37
2022-08-03T04:36:53.220Z,3.47
2022-08-03T04:39:27.799Z,3.87
2022-08-03T04:42:04.704Z,3.73
2022-08-03T04:44:41.124Z,3.70
2022-08-03T04:47:11.597Z,3.73
2022-08-03T04:49:41.088Z,3.73
2022-08-03T04:52:10.440Z,3.50
2022-08-03T04:54:50.608Z,3.97
2022-08-03T04:57:22.280Z,3.53
2022-08-03T04:59:58.164Z,4.10
2022-08-03T05:02:30.131Z,3.97
2022-08-03T05:04:57.014Z,4.03
2022-08-03T05:07:24.983Z,4.10
2022-08-03T05:09:57.675Z,4.63
2022-08-03T05:12:32.693Z,4.03
2022-08-03T05:15:00.395Z,4.50
2022-08-03T05:17:28.415Z,3.77
2022-08-03T05:19:55.263Z,3.70
2022-08-03T05:22:22.842Z,3.97
2022-08-03T05:24:49.903Z,3.80
2022-08-03T05:27:19.616Z,3.43
2022-08-03T05:29:47.293Z,3.37
2022-08-03T05:32:14.610Z,4.13
2022-08-03T05:34:42.190Z,3.70
2022-08-03T05:37:09.946Z,3.73
2022-08-03T05:39:37.107Z,3.07
2022-08-03T05:42:04.046Z,3.33
2022-08-03T05:44:31.878Z,3.53
2022-08-03T05:46:59.776Z,3.00
2022-08-03T05:49:27.039Z,3.37
2022-08-03T05:52:08.751Z,2.83
2022-08-03T05:54:55.946Z,3.00
2022-08-03T05:57:25.451Z,3.33
2022-08-03T05:59:54.643Z,3.50
2022-08-03T06:02:26.207Z,3.37
2022-08-03T06:04:52.979Z,3.20
2022-08-03T06:07:19.742Z,3.37
2022-08-03T06:10:34.196Z,3.70
2022-08-03T06:12:36.158Z,2.70
2022-08-03T06:15:05.060Z,2.87
2022-08-03T06:17:37.643Z,2.87
2022-08-03T06:20:05.973Z,3.17
2022-08-03T06:22:32.696Z,3.17
2022-08-03T06:24:59.962Z,3.57
2022-08-03T06:27:36.534Z,3.50
2022-08-03T06:30:05.116Z,3.00
2022-08-03T06:32:32.085Z,3.77
2022-08-03T06:34:58.970Z,3.30
2022-08-03T06:37:27.154Z,3.13
2022-08-03T06:39:54.251Z,3.60
2022-08-03T06:42:21.282Z,3.10
2022-08-03T06:44:49.518Z,3.40
2022-08-03T06:47:16.397Z,3.20
2022-08-03T06:49:43.239Z,3.10
2022-08-03T06:52:10.130Z,3.20
2022-08-03T06:54:36.899Z,2.80
2022-08-03T06:57:04.241Z,3.17
2022-08-03T07:00:06.255Z,3.00
2022-08-03T07:02:21.340Z,2.80
2022-08-03T07:04:48.992Z,3.00
2022-08-03T07:07:15.824Z,3.00
2022-08-03T07:09:42.796Z,3.50
2022-08-03T07:12:24.332Z,2.53
2022-08-03T07:14:51.158Z,3.70
2022-08-03T07:17:18.074Z,2.63
2022-08-03T07:19:44.856Z,2.10
2022-08-03T07:22:11.844Z,2.03
2022-08-03T07:24:38.737Z,2.70
2022-08-03T07:27:05.547Z,2.20
2022-08-03T07:29:34.582Z,2.30
2022-08-03T07:32:02.708Z,2.00
2022-08-03T07:34:29.885Z,2.40
2022-08-03T07:36:56.802Z,2.33
2022-08-03T07:39:23.635Z,2.20
2022-08-03T07:41:51.739Z,2.40
2022-08-03T07:44:19.594Z,2.55
2022-08-03T07:46:46.474Z,2.78
2022-08-03T07:49:13.761Z,2.38
2022-08-03T07:51:40.568Z,1.83
2022-08-03T07:54:07.762Z,2.17
2022-08-03T07:56:37.665Z,2.40
2022-08-03T07:59:04.466Z,1.98
2022-08-03T08:01:32.810Z,2.42
2022-08-03T08:03:59.744Z,2.33
2022-08-03T08:06:26.521Z,2.25
2022-08-03T08:08:54.058Z,2.20
2022-08-03T08:11:22.266Z,2.10
2022-08-03T08:13:49.159Z,1.90
2022-08-03T08:16:16.521Z,2.30
2022-08-03T08:18:43.226Z,2.33
2022-08-03T08:21:10.283Z,2.75
2022-08-03T08:23:42.516Z,2.38
2022-08-03T08:26:11.101Z,2.05
2022-08-03T08:28:37.955Z,2.30
2022-08-03T08:31:04.984Z,2.50
2022-08-03T08:33:48.326Z,2.30
2022-08-03T08:36:19.470Z,1.90
2022-08-03T08:38:46.394Z,2.40
2022-08-03T08:41:14.438Z,2.10
2022-08-03T08:43:42.706Z,2.22
2022-08-03T08:46:22.778Z,1.80
2022-08-03T08:48:52.152Z,1.95
2022-08-03T08:51:21.204Z,2.65
2022-08-03T08:53:54.446Z,1.85
2022-08-03T08:56:25.405Z,2.47
2022-08-03T08:58:56.965Z,2.10
2022-08-03T09:01:23.995Z,2.25
2022-08-03T09:03:51.348Z,2.90
2022-08-03T09:06:18.178Z,2.00
2022-08-03T09:08:44.911Z,1.73
2022-08-03T09:11:13.096Z,2.28
2022-08-03T09:13:40.363Z,3.00
2022-08-03T09:16:14.484Z,2.30
2022-08-03T09:18:43.222Z,2.92
2022-08-03T09:21:34.004Z,2.58
2022-08-03T09:24:05.371Z,2.10
2022-08-03T09:26:35.447Z,2.35
2022-08-03T09:29:14.809Z,2.05
2022-08-03T09:31:46.494Z,2.25
2022-08-03T09:34:17.081Z,2.25
2022-08-03T09:36:49.398Z,2.30
2022-08-03T09:39:40.438Z,2.58
2022-08-03T09:42:17.334Z,2.38
2022-08-03T09:44:52.914Z,2.58
2022-08-03T09:47:30.341Z,2.00
2022-08-03T09:49:58.442Z,2.78
2022-08-03T09:52:49.780Z,2.17
2022-08-03T09:56:33.819Z,2.08
2022-08-03T09:58:10.424Z,2.05
2022-08-03T10:00:56.983Z,2.10
2022-08-03T10:03:25.564Z,2.00
2022-08-03T10:05:56.186Z,1.83
2022-08-03T10:08:26.136Z,1.60
2022-08-03T10:10:58.484Z,1.67
2022-08-03T10:13:25.525Z,1.95
2022-08-03T10:16:21.867Z,2.13
2022-08-03T10:18:39.077Z,2.00
2022-08-03T10:21:10.361Z,1.90
2022-08-03T10:23:40.381Z,1.52
2022-08-03T10:26:08.440Z,2.20
2022-08-03T10:28:44.726Z,2.35
2022-08-03T10:31:14.127Z,2.40
2022-08-03T10:33:52.855Z,2.60
2022-08-03T10:36:24.223Z,1.90
2022-08-03T10:38:53.514Z,1.90
2022-08-03T10:41:22.455Z,1.52
2022-08-03T10:44:09.859Z,2.00
2022-08-03T10:46:44.512Z,2.08
2022-08-03T10:49:14.891Z,1.50
2022-08-03T10:51:44.662Z,2.58
2022-08-03T10:55:07.390Z,1.95
2022-08-03T10:58:01.009Z,2.00
2022-08-03T11:00:30.424Z,2.10
2022-08-03T11:03:14.578Z,2.03
2022-08-03T11:05:43.794Z,1.92
2022-08-03T11:08:27.861Z,2.20
2022-08-03T11:10:57.786Z,2.00
2022-08-03T11:13:28.241Z,2.05
2022-08-03T11:16:02.260Z,1.80
2022-08-03T11:18:31.060Z,1.90
2022-08-03T11:20:59.962Z,2.47
2022-08-03T11:24:03.572Z,2.35
2022-08-03T11:26:30.311Z,2.13
2022-08-03T11:29:30.562Z,1.55
2022-08-03T11:31:57.752Z,1.98
2022-08-03T11:34:25.416Z,2.63
2022-08-03T11:37:21.840Z,1.75
2022-08-03T11:39:50.847Z,1.70
2022-08-03T11:42:26.154Z,1.63
2022-08-03T11:44:57.059Z,1.42
2022-08-03T11:47:27.288Z,2.15
2022-08-03T11:50:00.658Z,1.63
2022-08-03T11:52:33.837Z,1.80
2022-08-03T11:55:00.931Z,1.60
2022-08-03T11:59:15.277Z,2.25
2022-08-03T12:00:30.982Z,1.60
2022-08-03T12:03:02.016Z,1.67
2022-08-03T12:05:51.681Z,1.83
2022-08-03T12:08:28.515Z,1.40
2022-08-03T12:10:57.622Z,1.67
2022-08-03T12:14:26.990Z,1.55
2022-08-03T12:16:23.976Z,1.55
2022-08-03T12:19:05.082Z,1.42
2022-08-03T12:21:32.677Z,1.23
2022-08-03T12:24:05.929Z,1.20
2022-08-03T12:26:57.208Z,1.33
2022-08-03T12:29:27.125Z,0.93
2022-08-03T12:31:53.965Z,1.13
2022-08-03T12:34:23.787Z,1.35
2022-08-03T12:36:53.326Z,0.95
2022-08-03T12:39:24.399Z,1.50
2022-08-03T12:41:54.879Z,1.20
2022-08-03T12:44:32.131Z,1.50
2022-08-03T12:46:59.987Z,1.20
2022-08-03T12:49:28.303Z,1.23
2022-08-03T12:52:03.937Z,1.20
2022-08-03T12:54:35.964Z,1.20
2022-08-03T12:57:06.706Z,1.05
2022-08-03T12:59:45.108Z,1.65
2022-08-03T13:02:23.378Z,1.27
2022-08-03T13:04:51.600Z,1.55
2022-08-03T13:07:19.416Z,1.17
2022-08-03T13:09:47.369Z,1.48
2022-08-03T13:12:19.039Z,1.50
2022-08-03T13:14:47.975Z,1.50
2022-08-03T13:17:16.907Z,2.05
2022-08-03T13:19:45.074Z,1.45
2022-08-03T13:22:23.515Z,1.45
2022-08-03T13:24:52.686Z,1.35
2022-08-03T13:28:02.149Z,1.90
2022-08-03T13:30:12.397Z,1.88
2022-08-03T13:32:39.899Z,1.50
2022-08-03T13:35:07.894Z,1.85
2022-08-03T13:37:35.426Z,1.83
2022-08-03T13:40:04.620Z,1.50
2022-08-03T13:42:34.547Z,1.58
2022-08-03T13:45:02.713Z,1.70
2022-08-03T13:47:29.558Z,1.85
2022-08-03T13:50:01.387Z,1.55
2022-08-03T13:52:34.374Z,1.63
2022-08-03T13:55:03.494Z,1.70
2022-08-03T13:58:02.920Z,1.58
2022-08-03T14:00:26.944Z,1.52
2022-08-03T14:03:03.002Z,1.67
2022-08-03T14:05:32.693Z,1.25
2022-08-03T14:08:04.828Z,1.83
2022-08-03T14:10:34.053Z,1.38
2022-08-03T14:13:01.042Z,1.10
2022-08-03T14:15:28.743Z,1.50
2022-08-03T14:17:58.613Z,1.65
2022-08-03T14:20:37.773Z,1.38
2022-08-03T14:23:07.149Z,1.60
2022-08-03T14:25:50.372Z,1.60
2022-08-03T14:28:22.559Z,1.40
2022-08-03T14:30:50.849Z,1.25
2022-08-03T14:33:17.882Z,1.77
2022-08-03T14:35:44.854Z,1.40
2022-08-03T14:38:12.202Z,1.33
2022-08-03T14:40:39.044Z,1.55
2022-08-03T14:43:05.939Z,1.30
2022-08-03T14:45:32.794Z,0.98
2022-08-03T14:50:34.938Z,1.33
2022-08-03T14:50:51.484Z,1.75
2022-08-03T14:53:21.203Z,1.30
2022-08-03T14:55:51.132Z,1.30
2022-08-03T14:58:20.954Z,1.50
2022-08-03T15:00:49.786Z,1.40
2022-08-03T15:03:20.486Z,1.27
2022-08-03T15:05:47.608Z,1.40
2022-08-03T15:08:14.643Z,1.50
2022-08-03T15:10:43.840Z,1.30
2022-08-03T15:13:12.298Z,1.67
2022-08-03T15:15:39.514Z,1.20
2022-08-03T15:18:06.868Z,4.07
2022-08-03T15:20:44.294Z,1.70
2022-08-03T15:23:13.045Z,2.65
2022-08-03T15:26:32.174Z,2.00
2022-08-03T15:28:26.848Z,1.95
2022-08-03T15:30:53.736Z,1.65
2022-08-03T15:33:20.613Z,1.83
2022-08-03T15:35:56.448Z,1.70
2022-08-03T15:38:26.147Z,1.30
2022-08-03T15:40:57.096Z,1.95
2022-08-03T15:43:23.932Z,2.47
2022-08-03T15:46:12.752Z,1.88
2022-08-03T15:48:38.778Z,1.63
2022-08-03T15:51:06.054Z,1.60
2022-08-03T15:53:33.704Z,1.70
2022-08-03T15:56:03.323Z,1.77
2022-08-03T15:59:07.661Z,1.88
2022-08-03T16:01:21.481Z,2.13
2022-08-03T16:03:48.378Z,1.92
2022-08-03T16:06:15.230Z,1.85
2022-08-03T16:08:42.341Z,1.80
2022-08-03T16:11:09.514Z,1.90
2022-08-03T16:14:11.924Z,2.00
2022-08-03T16:16:23.366Z,2.13
2022-08-03T16:18:50.208Z,1.60
2022-08-03T16:21:19.988Z,1.88
2022-08-03T16:23:48.638Z,1.90
2022-08-03T16:26:15.489Z,1.60
2022-08-03T16:28:42.603Z,1.67
2022-08-03T16:31:09.727Z,2.28
2022-08-03T16:33:36.647Z,1.20
2022-08-03T16:36:03.739Z,1.70
2022-08-03T16:38:30.599Z,1.98
2022-08-03T16:40:57.609Z,1.67
2022-08-03T16:43:24.942Z,1.75
2022-08-03T16:45:52.040Z,2.80
2022-08-03T16:48:19.523Z,2.10
2022-08-03T16:50:46.970Z,2.10
2022-08-03T16:53:15.805Z,1.95
2022-08-03T16:55:53.400Z,2.45
2022-08-03T16:58:41.784Z,1.88
2022-08-03T17:01:22.553Z,2.67
2022-08-03T17:04:03.299Z,2.30
2022-08-03T17:06:35.720Z,2.90
2022-08-03T17:09:09.208Z,1.80
2022-08-03T17:11:44.146Z,2.45
2022-08-03T17:14:21.799Z,2.63
2022-08-03T17:16:52.571Z,1.95
2022-08-03T17:19:23.312Z,1.70
2022-08-03T17:22:07.463Z,2.45
2022-08-03T17:24:41.547Z,1.40
2022-08-03T17:28:42.223Z,2.22
2022-08-03T17:30:07.750Z,1.80
2022-08-03T17:32:42.730Z,1.92
2022-08-03T17:35:21.019Z,1.90
2022-08-03T17:37:57.592Z,2.72
2022-08-03T17:40:30.905Z,2.25
2022-08-03T17:42:59.214Z,1.92
2022-08-03T17:45:26.020Z,2.00
2022-08-03T17:48:18.555Z,2.00
2022-08-03T17:50:51.776Z,1.65
2022-08-03T17:53:26.036Z,2.10
2022-08-03T17:56:42.627Z,2.70
2022-08-03T17:59:11.263Z,2.42
2022-08-03T18:02:29.587Z,2.17
2022-08-03T18:05:16.296Z,1.88
2022-08-03T18:07:59.459Z,1.80
2022-08-03T18:10:34.062Z,2.55
2022-08-03T18:13:10.893Z,2.33
2022-08-03T18:15:45.183Z,1.88
2022-08-03T18:18:16.058Z,1.80
2022-08-03T18:20:57.123Z,1.70
2022-08-03T18:23:36.767Z,2.00
2022-08-03T18:26:10.638Z,1.95
2022-08-03T18:28:39.093Z,1.70
2022-08-03T18:31:09.051Z,2.42
2022-08-03T18:34:16.860Z,1.60
2022-08-03T18:36:30.044Z,2.00
2022-08-03T18:38:59.523Z,1.85
2022-08-03T18:41:33.390Z,1.83
2022-08-03T18:44:06.838Z,2.30
2022-08-03T18:47:07.352Z,2.60
2022-08-03T18:50:09.174Z,2.15
2022-08-03T18:52:45.821Z,2.00
2022-08-03T18:55:33.728Z,1.77
2022-08-03T18:58:17.692Z,1.63
2022-08-03T19:01:01.382Z,1.98
2022-08-03T19:03:42.747Z,1.73
2022-08-03T19:06:21.733Z,1.88
2022-08-03T19:09:03.129Z,2.05
2022-08-03T19:12:12.718Z,1.88
2022-08-03T19:15:05.686Z,1.80
2022-08-03T19:17:50.134Z,2.47
2022-08-03T19:20:25.715Z,2.40
2022-08-03T19:22:54.411Z,2.53
2022-08-03T19:25:34.499Z,2.55
2022-08-03T19:28:04.773Z,2.20
2022-08-03T19:30:40.103Z,2.63
2022-08-03T19:33:29.942Z,2.53
2022-08-03T19:35:58.102Z,3.10
2022-08-03T19:38:28.945Z,2.45
2022-08-03T19:41:02.402Z,2.78
2022-08-03T19:43:53.933Z,2.30
2022-08-03T19:46:31.660Z,3.15
2022-08-03T19:49:14.829Z,3.72
2022-08-03T19:51:58.487Z,4.85
2022-08-03T19:54:45.589Z,2.55
2022-08-03T19:57:23.577Z,2.90
2022-08-03T19:59:52.476Z,2.63
2022-08-03T20:02:26.088Z,3.60
2022-08-03T20:04:56.387Z,2.85
2022-08-03T20:07:25.082Z,3.65
2022-08-03T20:09:54.419Z,3.17
2022-08-03T20:12:28.346Z,2.55
2022-08-03T20:14:59.385Z,2.17
2022-08-03T20:17:56.748Z,2.08
2022-08-03T20:20:37.790Z,2.20
2022-08-03T20:23:13.364Z,1.60
2022-08-03T20:25:57.464Z,2.00
2022-08-03T20:28:50.416Z,2.20
2022-08-03T20:31:19.649Z,2.08
2022-08-03T20:33:49.273Z,2.47
2022-08-03T20:36:18.460Z,2.00
2022-08-03T20:38:47.871Z,2.08
2022-08-03T20:41:16.725Z,2.17
2022-08-03T20:43:44.109Z,1.92
2022-08-03T20:46:29.621Z,2.22
2022-08-03T20:48:59.601Z,1.95
2022-08-03T20:51:50.140Z,2.30
2022-08-03T20:54:20.891Z,2.17
2022-08-03T20:56:57.592Z,1.88
2022-08-03T20:59:34.836Z,2.97
2022-08-03T21:02:19.713Z,2.97
2022-08-03T21:04:56.241Z,3.00
2022-08-03T21:07:45.595Z,2.67
2022-08-03T21:10:15.403Z,2.22
2022-08-03T21:13:15.426Z,2.80
2022-08-03T21:16:06.156Z,3.28
2022-08-03T21:18:48.444Z,4.18
2022-08-03T21:21:18.696Z,3.08
2022-08-03T21:23:52.604Z,2.42
2022-08-03T21:26:22.075Z,3.40
2022-08-03T21:28:52.142Z,3.95
2022-08-03T21:31:25.144Z,3.30
2022-08-03T21:33:57.639Z,3.35
2022-08-03T21:36:27.710Z,2.92
2022-08-03T21:38:56.365Z,3.00
2022-08-03T21:41:28.439Z,3.55
2022-08-03T21:43:55.153Z,5.22
2022-08-03T21:46:22.837Z,2.97
2022-08-03T21:48:55.420Z,4.18
2022-08-03T21:51:25.426Z,3.17
2022-08-03T21:54:03.173Z,3.95
2022-08-03T21:56:36.934Z,3.45
2022-08-03T21:59:06.585Z,4.00
2022-08-03T22:01:35.918Z,3.70
2022-08-03T22:04:09.302Z,3.20
2022-08-03T22:06:42.332Z,3.67
2022-08-03T22:09:09.385Z,3.60
2022-08-03T22:11:37.648Z,2.95
2022-08-03T22:14:05.034Z,3.80
2022-08-03T22:16:32.068Z,4.15
2022-08-03T22:18:59.079Z,3.85
2022-08-03T22:21:36.256Z,3.53
2022-08-03T22:24:05.472Z,4.70
2022-08-03T22:26:38.584Z,4.72
2022-08-03T22:29:08.544Z,4.00
2022-08-03T22:31:58.873Z,3.55
2022-08-03T22:34:26.895Z,3.42
2022-08-03T22:37:00.686Z,2.92
2022-08-03T22:39:28.984Z,3.60
2022-08-03T22:41:58.987Z,3.67
2022-08-03T22:44:27.316Z,3.03
2022-08-03T22:46:54.186Z,3.20
2022-08-03T22:49:22.064Z,3.83
2022-08-03T22:51:51.656Z,5.63
2022-08-03T22:54:18.896Z,3.22
2022-08-03T22:56:49.906Z,4.07
2022-08-03T22:59:39.277Z,3.88
2022-08-03T23:02:19.929Z,4.88
2022-08-03T23:04:51.774Z,4.25
2022-08-03T23:07:27.121Z,3.80
2022-08-03T23:09:56.703Z,6.55
2022-08-03T23:12:23.997Z,4.50
2022-08-03T23:14:56.694Z,6.75
2022-08-03T23:17:24.411Z,6.37
2022-08-03T23:19:52.754Z,5.07
2022-08-03T23:22:29.904Z,6.43
2022-08-03T23:25:09.982Z,5.53
2022-08-03T23:27:41.572Z,5.43
2022-08-03T23:30:10.170Z,4.43
2022-08-03T23:32:37.522Z,5.03
2022-08-03T23:35:24.884Z,5.90
2022-08-03T23:38:22.734Z,5.03
2022-08-03T23:40:51.511Z,4.63
2022-08-03T23:43:44.418Z,5.23
2022-08-03T23:46:09.088Z,5.27
2022-08-03T23:48:36.091Z,5.60
2022-08-03T23:51:23.479Z,5.00
2022-08-03T23:54:09.533Z,5.80
2022-08-03T23:56:50.700Z,6.07
2022-08-03T23:59:56.325Z,7.27
